Outlook, WA (98938)

7:07 AM PDT on September 16, 2014 (GMT -0700)
Zillah-Sonrise | Change Station
CLOSE
Current Station
Personal Weather Station
Location: Zillah, WA
Elevation: 876 ft
Nearby Weather Stations

Elev 876 ft 46.40 °N, 120.23 °W | Updated 13 minutes ago

Partly Cloudy
Partly Cloudy
55.2 °F
Feels Like 55.2 °F
N
0.0
Wind Variable Wind from SSE

Today
High -- | Low -- °F
--% Chance of Precip.
Yesterday
High -- | Low -- °F
Precip. -- in
6:39 AM 7:09 PM
Last Quarter, 45% visible
Pressure 29.86 in
Visibility 10.0 miles
Clouds Clear
Dew Point 43 °F
Humidity 64%
Rainfall 0.00 in
Snow Depth 1 in , 0 in , 0 in
UV 0 out of 12
Pollen 2.90 out of 12
Air Quality Not available.
Flu Activity Not available.
METAR KYKM 161353Z 27006KT 10SM CLR 11/06 A2987 RMK AO2 SLP110 T01110056 $

More Conditions Fewer Conditions

Pressure 29.86 in
Visibility 10.0 miles
Clouds Clear
Dew Point 43 °F
Humidity 64%
Rainfall 0.00 in
Snow Depth 1 in , 0 in , 0 in
UV 0 out of 12
Pollen 2.90 out of 12
Air Quality Not available.
Flu Activity Not available.
METAR KYKM 161353Z 27006KT 10SM CLR 11/06 A2987 RMK AO2 SLP110 T01110056 $

More Conditions Fewer Conditions

10-Day Weather Forecast

Almanac

Astronomy

Sep. 16, 2014 Rise Set
Actual Time 6:39 AM PDT 7:09 PM PDT
Civil Twilight 6:09 AM PDT 7:39 PM PDT
Nautical Twilight 5:33 AM PDT 8:15 PM PDT
Astronomical Twilight 4:56 AM PDT 8:52 PM PDT
Moon No Moon Rise 2:52 PM PDT
Length of Visible Light 13h 30m
Length of Day
12h 29m
Tomorrow will be 3m 15s shorter.
Last Quarter, 45% of the Moon is Illuminated
Today
Last Quarter
Sep 24
New
Oct 1
First Quarter
Oct 8
Full
Oct 15
Last Quarter

Today's Extremes

State Highs State Lows

Community

WunderPhotos

Upload Photos

1,753,780 photos uploaded!

Nearby

Snow Depth

Station Depth Elevation
Beaver Pass 1 in 3620 ft
Fish Lake 0 in 3371 ft
Spruce Springs 0 in 5700 ft
June Lake 0 in 3340 ft
Swift Creek 0 in 3770 ft

Earthquake Activity

City Distance Mag. Time & Date
No recent earthquake activity has been reported nearby.
Minimum magnitude displayed is 2.5.

Coastal Water Temperatures

Place Temperature
No Stations Reporting

Nearby Weather Stations